sensor_id;sensor_type;location;lat;lon;timestamp;P1;durP1;ratioP1;P2;durP2;ratioP2
59766;SDS011;46248;58.364;25.582;2023-08-07T00:00:28;12.50;;;11.15;;
59766;SDS011;46248;58.364;25.582;2023-08-07T00:03:49;11.55;;;10.38;;
59766;SDS011;46248;58.364;25.582;2023-08-07T00:07:11;12.40;;;11.10;;
59766;SDS011;46248;58.364;25.582;2023-08-07T00:10:34;11.10;;;10.00;;
59766;SDS011;46248;58.364;25.582;2023-08-07T00:13:57;12.50;;;10.75;;
59766;SDS011;46248;58.364;25.582;2023-08-07T00:17:19;13.73;;;10.75;;
59766;SDS011;46248;58.364;25.582;2023-08-07T00:20:41;12.48;;;11.15;;
59766;SDS011;46248;58.364;25.582;2023-08-07T00:24:02;11.40;;;10.30;;
59766;SDS011;46248;58.364;25.582;2023-08-07T00:27:26;12.38;;;11.07;;
59766;SDS011;46248;58.364;25.582;2023-08-07T00:30:48;13.00;;;10.75;;
59766;SDS011;46248;58.364;25.582;2023-08-07T00:34:09;16.55;;;11.52;;
59766;SDS011;46248;58.364;25.582;2023-08-07T00:37:30;14.43;;;11.77;;
59766;SDS011;46248;58.364;25.582;2023-08-07T00:40:52;12.65;;;11.23;;
59766;SDS011;46248;58.364;25.582;2023-08-07T00:44:15;12.05;;;10.88;;
59766;SDS011;46248;58.364;25.582;2023-08-07T00:47:37;12.60;;;11.27;;
59766;SDS011;46248;58.364;25.582;2023-08-07T00:50:59;11.98;;;10.90;;
59766;SDS011;46248;58.364;25.582;2023-08-07T00:54:21;11.18;;;10.07;;
59766;SDS011;46248;58.364;25.582;2023-08-07T00:57:43;18.02;;;12.77;;
59766;SDS011;46248;58.364;25.582;2023-08-07T01:01:06;12.23;;;10.95;;
59766;SDS011;46248;58.364;25.582;2023-08-07T01:04:29;12.10;;;10.88;;
59766;SDS011;46248;58.364;25.582;2023-08-07T01:07:52;12.98;;;11.05;;
59766;SDS011;46248;58.364;25.582;2023-08-07T01:11:18;13.45;;;12.13;;
59766;SDS011;46248;58.364;25.582;2023-08-07T01:14:47;11.73;;;10.50;;
59766;SDS011;46248;58.364;25.582;2023-08-07T01:18:13;12.55;;;11.25;;
59766;SDS011;46248;58.364;25.582;2023-08-07T01:21:36;11.52;;;10.15;;
59766;SDS011;46248;58.364;25.582;2023-08-07T01:24:59;10.25;;;9.07;;
59766;SDS011;46248;58.364;25.582;2023-08-07T01:28:22;12.77;;;10.80;;
59766;SDS011;46248;58.364;25.582;2023-08-07T01:31:49;13.55;;;10.77;;
59766;SDS011;46248;58.364;25.582;2023-08-07T01:35:14;13.30;;;11.90;;
59766;SDS011;46248;58.364;25.582;2023-08-07T01:38:37;12.95;;;11.52;;
59766;SDS011;46248;58.364;25.582;2023-08-07T01:42:01;12.50;;;10.82;;
59766;SDS011;46248;58.364;25.582;2023-08-07T01:45:24;12.82;;;11.40;;
59766;SDS011;46248;58.364;25.582;2023-08-07T01:48:47;12.48;;;11.18;;
59766;SDS011;46248;58.364;25.582;2023-08-07T01:52:08;13.90;;;11.05;;
59766;SDS011;46248;58.364;25.582;2023-08-07T01:55:31;12.90;;;11.50;;
59766;SDS011;46248;58.364;25.582;2023-08-07T01:58:54;11.65;;;10.55;;
59766;SDS011;46248;58.364;25.582;2023-08-07T02:02:16;11.93;;;10.77;;
59766;SDS011;46248;58.364;25.582;2023-08-07T02:05:38;12.52;;;11.30;;
59766;SDS011;46248;58.364;25.582;2023-08-07T02:09:00;12.07;;;10.88;;
59766;SDS011;46248;58.364;25.582;2023-08-07T02:12:21;12.52;;;11.23;;
59766;SDS011;46248;58.364;25.582;2023-08-07T02:15:45;14.32;;;12.80;;
59766;SDS011;46248;58.364;25.582;2023-08-07T02:19:06;13.63;;;12.10;;
59766;SDS011;46248;58.364;25.582;2023-08-07T02:22:28;13.57;;;12.27;;
59766;SDS011;46248;58.364;25.582;2023-08-07T02:25:51;12.73;;;11.35;;
59766;SDS011;46248;58.364;25.582;2023-08-07T02:29:14;14.23;;;12.35;;
59766;SDS011;46248;58.364;25.582;2023-08-07T02:32:37;12.88;;;11.20;;
59766;SDS011;46248;58.364;25.582;2023-08-07T02:36:01;13.68;;;12.25;;
59766;SDS011;46248;58.364;25.582;2023-08-07T02:39:24;19.35;;;13.23;;
59766;SDS011;46248;58.364;25.582;2023-08-07T02:42:46;13.93;;;12.52;;
59766;SDS011;46248;58.364;25.582;2023-08-07T02:46:07;13.98;;;12.57;;
59766;SDS011;46248;58.364;25.582;2023-08-07T02:49:31;15.40;;;12.95;;
59766;SDS011;46248;58.364;25.582;2023-08-07T02:52:52;16.70;;;14.05;;
59766;SDS011;46248;58.364;25.582;2023-08-07T02:56:14;14.02;;;12.48;;
59766;SDS011;46248;58.364;25.582;2023-08-07T02:59:36;15.55;;;12.15;;
59766;SDS011;46248;58.364;25.582;2023-08-07T03:02:57;13.85;;;12.13;;
59766;SDS011;46248;58.364;25.582;2023-08-07T03:06:21;14.80;;;13.27;;
59766;SDS011;46248;58.364;25.582;2023-08-07T03:09:44;16.02;;;13.15;;
59766;SDS011;46248;58.364;25.582;2023-08-07T03:13:07;13.77;;;11.98;;
59766;SDS011;46248;58.364;25.582;2023-08-07T03:16:28;13.90;;;12.45;;
59766;SDS011;46248;58.364;25.582;2023-08-07T03:19:50;15.15;;;13.07;;
59766;SDS011;46248;58.364;25.582;2023-08-07T03:23:13;12.63;;;11.43;;
59766;SDS011;46248;58.364;25.582;2023-08-07T03:26:34;12.90;;;11.60;;
59766;SDS011;46248;58.364;25.582;2023-08-07T03:29:56;15.70;;;12.23;;
59766;SDS011;46248;58.364;25.582;2023-08-07T03:33:17;14.10;;;11.98;;
59766;SDS011;46248;58.364;25.582;2023-08-07T03:36:39;18.25;;;12.45;;
59766;SDS011;46248;58.364;25.582;2023-08-07T03:40:02;15.48;;;12.70;;
59766;SDS011;46248;58.364;25.582;2023-08-07T03:43:25;12.93;;;11.52;;
59766;SDS011;46248;58.364;25.582;2023-08-07T03:46:46;14.32;;;11.65;;
59766;SDS011;46248;58.364;25.582;2023-08-07T03:50:08;12.80;;;11.55;;
59766;SDS011;46248;58.364;25.582;2023-08-07T03:53:30;14.68;;;11.98;;
59766;SDS011;46248;58.364;25.582;2023-08-07T03:56:53;12.68;;;11.30;;
59766;SDS011;46248;58.364;25.582;2023-08-07T04:00:16;12.60;;;11.40;;
59766;SDS011;46248;58.364;25.582;2023-08-07T04:03:37;11.90;;;10.77;;
59766;SDS011;46248;58.364;25.582;2023-08-07T04:06:59;13.73;;;11.38;;
59766;SDS011;46248;58.364;25.582;2023-08-07T04:10:22;12.43;;;11.02;;
59766;SDS011;46248;58.364;25.582;2023-08-07T04:13:45;15.80;;;12.55;;
59766;SDS011;46248;58.364;25.582;2023-08-07T04:17:07;13.80;;;12.05;;
59766;SDS011;46248;58.364;25.582;2023-08-07T04:20:28;13.85;;;12.48;;
59766;SDS011;46248;58.364;25.582;2023-08-07T04:23:50;13.93;;;12.18;;
59766;SDS011;46248;58.364;25.582;2023-08-07T04:27:11;12.05;;;10.85;;
59766;SDS011;46248;58.364;25.582;2023-08-07T04:30:34;15.63;;;12.95;;
59766;SDS011;46248;58.364;25.582;2023-08-07T04:33:56;13.60;;;11.50;;
59766;SDS011;46248;58.364;25.582;2023-08-07T04:37:17;14.13;;;12.30;;
59766;SDS011;46248;58.364;25.582;2023-08-07T04:40:43;12.27;;;9.98;;
59766;SDS011;46248;58.364;25.582;2023-08-07T04:44:05;14.15;;;12.70;;
59766;SDS011;46248;58.364;25.582;2023-08-07T04:47:28;11.93;;;10.73;;
59766;SDS011;46248;58.364;25.582;2023-08-07T04:50:50;12.45;;;10.88;;
59766;SDS011;46248;58.364;25.582;2023-08-07T04:54:12;12.98;;;10.38;;
59766;SDS011;46248;58.364;25.582;2023-08-07T04:57:33;12.52;;;11.23;;
59766;SDS011;46248;58.364;25.582;2023-08-07T05:00:55;10.65;;;9.45;;
59766;SDS011;46248;58.364;25.582;2023-08-07T05:04:18;13.23;;;10.93;;
59766;SDS011;46248;58.364;25.582;2023-08-07T05:07:40;11.02;;;9.98;;
59766;SDS011;46248;58.364;25.582;2023-08-07T05:11:02;13.45;;;10.35;;
59766;SDS011;46248;58.364;25.582;2023-08-07T05:14:24;12.23;;;10.77;;
59766;SDS011;46248;58.364;25.582;2023-08-07T05:17:45;12.20;;;9.82;;
59766;SDS011;46248;58.364;25.582;2023-08-07T05:21:09;13.63;;;10.70;;
59766;SDS011;46248;58.364;25.582;2023-08-07T05:24:30;11.02;;;9.93;;
59766;SDS011;46248;58.364;25.582;2023-08-07T05:27:59;11.80;;;10.70;;
59766;SDS011;46248;58.364;25.582;2023-08-07T05:31:20;12.13;;;10.85;;
59766;SDS011;46248;58.364;25.582;2023-08-07T05:34:43;12.88;;;11.68;;
59766;SDS011;46248;58.364;25.582;2023-08-07T05:38:06;14.40;;;10.52;;
59766;SDS011;46248;58.364;25.582;2023-08-07T05:41:28;11.55;;;10.27;;
59766;SDS011;46248;58.364;25.582;2023-08-07T05:44:49;11.10;;;10.07;;
59766;SDS011;46248;58.364;25.582;2023-08-07T05:48:11;11.13;;;10.02;;
59766;SDS011;46248;58.364;25.582;2023-08-07T05:51:33;10.13;;;9.13;;
59766;SDS011;46248;58.364;25.582;2023-08-07T05:54:56;12.70;;;10.18;;
59766;SDS011;46248;58.364;25.582;2023-08-07T05:58:17;13.00;;;11.27;;
59766;SDS011;46248;58.364;25.582;2023-08-07T06:01:39;10.20;;;9.20;;
59766;SDS011;46248;58.364;25.582;2023-08-07T06:05:01;9.60;;;8.73;;
59766;SDS011;46248;58.364;25.582;2023-08-07T06:08:23;10.40;;;9.45;;
59766;SDS011;46248;58.364;25.582;2023-08-07T06:11:46;10.05;;;9.13;;
59766;SDS011;46248;58.364;25.582;2023-08-07T06:15:08;11.27;;;8.98;;
59766;SDS011;46248;58.364;25.582;2023-08-07T06:18:31;14.35;;;11.15;;
59766;SDS011;46248;58.364;25.582;2023-08-07T06:21:52;14.30;;;10.68;;
59766;SDS011;46248;58.364;25.582;2023-08-07T06:25:15;11.38;;;10.30;;
59766;SDS011;46248;58.364;25.582;2023-08-07T06:28:41;14.85;;;9.32;;
59766;SDS011;46248;58.364;25.582;2023-08-07T06:32:03;10.95;;;9.85;;
59766;SDS011;46248;58.364;25.582;2023-08-07T06:35:26;11.13;;;9.10;;
59766;SDS011;46248;58.364;25.582;2023-08-07T06:38:48;11.50;;;10.25;;
59766;SDS011;46248;58.364;25.582;2023-08-07T06:42:10;12.07;;;9.48;;
59766;SDS011;46248;58.364;25.582;2023-08-07T06:45:33;13.68;;;9.73;;
59766;SDS011;46248;58.364;25.582;2023-08-07T06:48:55;9.88;;;8.88;;
59766;SDS011;46248;58.364;25.582;2023-08-07T06:52:16;14.63;;;10.00;;
59766;SDS011;46248;58.364;25.582;2023-08-07T06:55:38;11.50;;;9.52;;
59766;SDS011;46248;58.364;25.582;2023-08-07T06:59:00;10.35;;;9.15;;
59766;SDS011;46248;58.364;25.582;2023-08-07T07:02:23;10.30;;;9.30;;
59766;SDS011;46248;58.364;25.582;2023-08-07T07:05:45;10.85;;;9.10;;
59766;SDS011;46248;58.364;25.582;2023-08-07T07:09:06;10.60;;;9.48;;
59766;SDS011;46248;58.364;25.582;2023-08-07T07:12:28;11.05;;;9.85;;
59766;SDS011;46248;58.364;25.582;2023-08-07T07:15:52;11.00;;;9.98;;
59766;SDS011;46248;58.364;25.582;2023-08-07T07:19:16;11.07;;;9.45;;
59766;SDS011;46248;58.364;25.582;2023-08-07T07:22:38;11.27;;;10.07;;
59766;SDS011;46248;58.364;25.582;2023-08-07T07:26:00;10.82;;;9.73;;
59766;SDS011;46248;58.364;25.582;2023-08-07T07:29:22;10.38;;;9.35;;
59766;SDS011;46248;58.364;25.582;2023-08-07T07:32:44;10.32;;;9.30;;
59766;SDS011;46248;58.364;25.582;2023-08-07T07:36:07;10.77;;;9.68;;
59766;SDS011;46248;58.364;25.582;2023-08-07T07:39:28;10.82;;;9.70;;
59766;SDS011;46248;58.364;25.582;2023-08-07T07:42:50;11.10;;;10.05;;
59766;SDS011;46248;58.364;25.582;2023-08-07T07:46:11;9.95;;;8.88;;
59766;SDS011;46248;58.364;25.582;2023-08-07T07:49:34;11.43;;;9.60;;
59766;SDS011;46248;58.364;25.582;2023-08-07T07:52:57;12.93;;;9.52;;
59766;SDS011;46248;58.364;25.582;2023-08-07T07:56:18;10.18;;;9.20;;
59766;SDS011;46248;58.364;25.582;2023-08-07T07:59:40;10.45;;;8.43;;
59766;SDS011;46248;58.364;25.582;2023-08-07T08:03:02;15.38;;;9.10;;
59766;SDS011;46248;58.364;25.582;2023-08-07T08:06:24;10.52;;;9.40;;
59766;SDS011;46248;58.364;25.582;2023-08-07T08:09:47;9.68;;;8.63;;
59766;SDS011;46248;58.364;25.582;2023-08-07T08:13:08;12.95;;;9.45;;
59766;SDS011;46248;58.364;25.582;2023-08-07T08:16:30;10.48;;;8.82;;
59766;SDS011;46248;58.364;25.582;2023-08-07T08:19:52;10.45;;;8.70;;
59766;SDS011;46248;58.364;25.582;2023-08-07T08:23:13;11.27;;;9.07;;
59766;SDS011;46248;58.364;25.582;2023-08-07T08:26:37;9.48;;;8.00;;
59766;SDS011;46248;58.364;25.582;2023-08-07T08:29:58;10.55;;;8.32;;
59766;SDS011;46248;58.364;25.582;2023-08-07T08:33:20;8.13;;;7.32;;
59766;SDS011;46248;58.364;25.582;2023-08-07T08:36:42;9.40;;;7.60;;
59766;SDS011;46248;58.364;25.582;2023-08-07T08:40:04;11.82;;;8.50;;
59766;SDS011;46248;58.364;25.582;2023-08-07T08:43:29;9.80;;;7.95;;
59766;SDS011;46248;58.364;25.582;2023-08-07T08:46:56;9.55;;;8.65;;
59766;SDS011;46248;58.364;25.582;2023-08-07T08:50:21;9.85;;;8.05;;
59766;SDS011;46248;58.364;25.582;2023-08-07T08:53:44;9.05;;;8.18;;
59766;SDS011;46248;58.364;25.582;2023-08-07T08:57:07;9.30;;;8.43;;
59766;SDS011;46248;58.364;25.582;2023-08-07T09:00:30;9.32;;;7.72;;
59766;SDS011;46248;58.364;25.582;2023-08-07T09:03:54;10.00;;;8.20;;
59766;SDS011;46248;58.364;25.582;2023-08-07T09:07:17;10.18;;;7.93;;
59766;SDS011;46248;58.364;25.582;2023-08-07T09:10:41;8.30;;;7.50;;
59766;SDS011;46248;58.364;25.582;2023-08-07T09:14:04;10.20;;;9.27;;
59766;SDS011;46248;58.364;25.582;2023-08-07T09:17:28;9.05;;;8.10;;
59766;SDS011;46248;58.364;25.582;2023-08-07T09:20:52;8.98;;;8.10;;
59766;SDS011;46248;58.364;25.582;2023-08-07T09:24:13;10.55;;;8.73;;
59766;SDS011;46248;58.364;25.582;2023-08-07T09:27:41;10.30;;;7.95;;
59766;SDS011;46248;58.364;25.582;2023-08-07T09:31:05;10.55;;;7.10;;
59766;SDS011;46248;58.364;25.582;2023-08-07T09:34:30;9.50;;;8.55;;
59766;SDS011;46248;58.364;25.582;2023-08-07T09:37:52;11.20;;;7.88;;
59766;SDS011;46248;58.364;25.582;2023-08-07T09:41:15;8.32;;;7.63;;
59766;SDS011;46248;58.364;25.582;2023-08-07T09:44:39;9.70;;;8.18;;
59766;SDS011;46248;58.364;25.582;2023-08-07T09:48:01;11.10;;;8.95;;
59766;SDS011;46248;58.364;25.582;2023-08-07T09:51:25;9.23;;;8.40;;
59766;SDS011;46248;58.364;25.582;2023-08-07T09:54:47;9.93;;;9.00;;
59766;SDS011;46248;58.364;25.582;2023-08-07T09:58:08;13.85;;;9.02;;
59766;SDS011;46248;58.364;25.582;2023-08-07T10:01:33;13.57;;;8.63;;
59766;SDS011;46248;58.364;25.582;2023-08-07T10:04:58;10.43;;;8.45;;
59766;SDS011;46248;58.364;25.582;2023-08-07T10:08:25;10.13;;;7.93;;
59766;SDS011;46248;58.364;25.582;2023-08-07T10:11:48;8.57;;;7.35;;
59766;SDS011;46248;58.364;25.582;2023-08-07T10:15:10;7.97;;;7.20;;
59766;SDS011;46248;58.364;25.582;2023-08-07T10:18:34;8.77;;;7.95;;
59766;SDS011;46248;58.364;25.582;2023-08-07T10:21:56;7.72;;;6.97;;
59766;SDS011;46248;58.364;25.582;2023-08-07T10:25:21;11.93;;;7.30;;
59766;SDS011;46248;58.364;25.582;2023-08-07T10:28:46;9.82;;;7.65;;
59766;SDS011;46248;58.364;25.582;2023-08-07T10:32:09;9.93;;;7.05;;
59766;SDS011;46248;58.364;25.582;2023-08-07T10:35:33;10.57;;;7.22;;
59766;SDS011;46248;58.364;25.582;2023-08-07T10:38:56;7.35;;;6.65;;
59766;SDS011;46248;58.364;25.582;2023-08-07T10:42:29;8.27;;;7.00;;
59766;SDS011;46248;58.364;25.582;2023-08-07T10:46:11;8.88;;;7.40;;
59766;SDS011;46248;58.364;25.582;2023-08-07T10:49:34;8.07;;;7.15;;
59766;SDS011;46248;58.364;25.582;2023-08-07T10:52:59;6.43;;;5.82;;
59766;SDS011;46248;58.364;25.582;2023-08-07T10:56:29;9.02;;;5.90;;
59766;SDS011;46248;58.364;25.582;2023-08-07T11:00:02;11.75;;;7.65;;
59766;SDS011;46248;58.364;25.582;2023-08-07T11:03:29;10.67;;;7.07;;
59766;SDS011;46248;58.364;25.582;2023-08-07T11:06:56;9.57;;;7.83;;
59766;SDS011;46248;58.364;25.582;2023-08-07T11:10:18;10.48;;;7.43;;
59766;SDS011;46248;58.364;25.582;2023-08-07T11:13:40;11.40;;;8.23;;
59766;SDS011;46248;58.364;25.582;2023-08-07T11:17:03;10.30;;;7.55;;
59766;SDS011;46248;58.364;25.582;2023-08-07T11:20:25;8.55;;;6.82;;
59766;SDS011;46248;58.364;25.582;2023-08-07T11:23:47;8.10;;;7.40;;
59766;SDS011;46248;58.364;25.582;2023-08-07T11:27:09;7.55;;;6.75;;
59766;SDS011;46248;58.364;25.582;2023-08-07T11:30:32;7.50;;;6.63;;
59766;SDS011;46248;58.364;25.582;2023-08-07T11:33:56;9.63;;;6.75;;
59766;SDS011;46248;58.364;25.582;2023-08-07T11:37:19;9.20;;;7.63;;
59766;SDS011;46248;58.364;25.582;2023-08-07T11:40:41;6.47;;;5.88;;
59766;SDS011;46248;58.364;25.582;2023-08-07T11:44:03;11.57;;;6.85;;
59766;SDS011;46248;58.364;25.582;2023-08-07T11:47:25;7.68;;;6.85;;
59766;SDS011;46248;58.364;25.582;2023-08-07T11:50:49;8.45;;;6.95;;
59766;SDS011;46248;58.364;25.582;2023-08-07T11:54:13;7.38;;;6.10;;
59766;SDS011;46248;58.364;25.582;2023-08-07T11:57:37;8.13;;;6.18;;
59766;SDS011;46248;58.364;25.582;2023-08-07T12:01:05;7.47;;;6.80;;
59766;SDS011;46248;58.364;25.582;2023-08-07T12:04:29;10.52;;;6.63;;
59766;SDS011;46248;58.364;25.582;2023-08-07T12:07:54;6.57;;;5.70;;
59766;SDS011;46248;58.364;25.582;2023-08-07T12:11:15;6.53;;;5.30;;
59766;SDS011;46248;58.364;25.582;2023-08-07T12:14:38;11.30;;;6.40;;
59766;SDS011;46248;58.364;25.582;2023-08-07T12:18:00;10.52;;;5.78;;
59766;SDS011;46248;58.364;25.582;2023-08-07T12:21:23;7.75;;;5.70;;
59766;SDS011;46248;58.364;25.582;2023-08-07T12:24:47;7.22;;;5.20;;
59766;SDS011;46248;58.364;25.582;2023-08-07T12:28:08;7.60;;;6.15;;
59766;SDS011;46248;58.364;25.582;2023-08-07T12:31:30;8.35;;;5.90;;
59766;SDS011;46248;58.364;25.582;2023-08-07T12:34:52;8.32;;;6.05;;
59766;SDS011;46248;58.364;25.582;2023-08-07T12:38:16;7.15;;;6.45;;
59766;SDS011;46248;58.364;25.582;2023-08-07T12:41:40;9.55;;;6.80;;
59766;SDS011;46248;58.364;25.582;2023-08-07T12:45:22;9.77;;;5.85;;
59766;SDS011;46248;58.364;25.582;2023-08-07T12:48:47;9.52;;;7.13;;
59766;SDS011;46248;58.364;25.582;2023-08-07T12:52:09;5.68;;;5.10;;
59766;SDS011;46248;58.364;25.582;2023-08-07T12:55:30;8.77;;;6.22;;
59766;SDS011;46248;58.364;25.582;2023-08-07T12:58:53;7.38;;;5.97;;
59766;SDS011;46248;58.364;25.582;2023-08-07T13:02:15;6.10;;;5.43;;
59766;SDS011;46248;58.364;25.582;2023-08-07T13:05:36;6.88;;;6.18;;
59766;SDS011;46248;58.364;25.582;2023-08-07T13:08:58;9.77;;;5.25;;
59766;SDS011;46248;58.364;25.582;2023-08-07T13:12:20;7.13;;;6.22;;
59766;SDS011;46248;58.364;25.582;2023-08-07T13:15:43;9.48;;;6.63;;
59766;SDS011;46248;58.364;25.582;2023-08-07T13:19:05;13.13;;;6.30;;
59766;SDS011;46248;58.364;25.582;2023-08-07T13:22:26;10.93;;;6.28;;
59766;SDS011;46248;58.364;25.582;2023-08-07T13:25:48;7.78;;;6.97;;
59766;SDS011;46248;58.364;25.582;2023-08-07T13:29:10;8.90;;;6.15;;
59766;SDS011;46248;58.364;25.582;2023-08-07T13:32:33;7.75;;;6.20;;
59766;SDS011;46248;58.364;25.582;2023-08-07T13:35:55;10.50;;;6.80;;
59766;SDS011;46248;58.364;25.582;2023-08-07T13:39:17;10.63;;;7.35;;
59766;SDS011;46248;58.364;25.582;2023-08-07T13:42:38;11.07;;;7.13;;
59766;SDS011;46248;58.364;25.582;2023-08-07T13:46:00;7.93;;;7.18;;
59766;SDS011;46248;58.364;25.582;2023-08-07T13:49:23;8.98;;;6.50;;
59766;SDS011;46248;58.364;25.582;2023-08-07T13:52:44;11.13;;;6.93;;
59766;SDS011;46248;58.364;25.582;2023-08-07T13:56:19;9.35;;;6.03;;
59766;SDS011;46248;58.364;25.582;2023-08-07T13:59:41;7.30;;;5.90;;
59766;SDS011;46248;58.364;25.582;2023-08-07T14:03:03;10.68;;;5.75;;
59766;SDS011;46248;58.364;25.582;2023-08-07T14:06:26;8.27;;;7.43;;
59766;SDS011;46248;58.364;25.582;2023-08-07T14:09:48;11.45;;;6.90;;
59766;SDS011;46248;58.364;25.582;2023-08-07T14:13:10;15.13;;;7.97;;
59766;SDS011;46248;58.364;25.582;2023-08-07T14:16:32;17.95;;;7.53;;
59766;SDS011;46248;58.364;25.582;2023-08-07T14:19:56;13.00;;;7.20;;
59766;SDS011;46248;58.364;25.582;2023-08-07T14:23:19;10.68;;;6.22;;
59766;SDS011;46248;58.364;25.582;2023-08-07T14:26:41;9.45;;;8.45;;
59766;SDS011;46248;58.364;25.582;2023-08-07T14:30:03;14.43;;;7.22;;
59766;SDS011;46248;58.364;25.582;2023-08-07T14:33:28;8.57;;;7.03;;
59766;SDS011;46248;58.364;25.582;2023-08-07T14:36:50;11.50;;;7.75;;
59766;SDS011;46248;58.364;25.582;2023-08-07T14:40:15;12.57;;;6.88;;
59766;SDS011;46248;58.364;25.582;2023-08-07T14:43:37;12.98;;;7.07;;
59766;SDS011;46248;58.364;25.582;2023-08-07T14:46:59;8.40;;;6.15;;
59766;SDS011;46248;58.364;25.582;2023-08-07T14:50:21;10.35;;;6.78;;
59766;SDS011;46248;58.364;25.582;2023-08-07T14:53:42;11.82;;;6.95;;
59766;SDS011;46248;58.364;25.582;2023-08-07T14:57:05;8.27;;;5.80;;
59766;SDS011;46248;58.364;25.582;2023-08-07T15:00:27;11.88;;;6.82;;
59766;SDS011;46248;58.364;25.582;2023-08-07T15:03:49;9.05;;;6.50;;
59766;SDS011;46248;58.364;25.582;2023-08-07T15:07:11;8.38;;;6.85;;
59766;SDS011;46248;58.364;25.582;2023-08-07T15:10:33;15.48;;;7.13;;
59766;SDS011;46248;58.364;25.582;2023-08-07T15:13:57;10.57;;;7.35;;
59766;SDS011;46248;58.364;25.582;2023-08-07T15:17:18;15.85;;;7.45;;
59766;SDS011;46248;58.364;25.582;2023-08-07T15:20:40;8.35;;;5.60;;
59766;SDS011;46248;58.364;25.582;2023-08-07T15:24:02;18.25;;;6.93;;
59766;SDS011;46248;58.364;25.582;2023-08-07T15:27:24;16.25;;;7.28;;
59766;SDS011;46248;58.364;25.582;2023-08-07T15:30:50;8.27;;;6.68;;
59766;SDS011;46248;58.364;25.582;2023-08-07T15:34:12;8.38;;;6.60;;
59766;SDS011;46248;58.364;25.582;2023-08-07T15:37:34;11.93;;;6.35;;
59766;SDS011;46248;58.364;25.582;2023-08-07T15:40:56;10.20;;;7.00;;
59766;SDS011;46248;58.364;25.582;2023-08-07T15:44:17;8.75;;;6.03;;
59766;SDS011;46248;58.364;25.582;2023-08-07T15:47:41;13.23;;;2.88;;
59766;SDS011;46248;58.364;25.582;2023-08-07T15:51:03;7.97;;;2.08;;
59766;SDS011;46248;58.364;25.582;2023-08-07T15:54:24;2.85;;;1.35;;
59766;SDS011;46248;58.364;25.582;2023-08-07T15:57:46;1.90;;;0.80;;
59766;SDS011;46248;58.364;25.582;2023-08-07T16:01:07;1.00;;;0.60;;
59766;SDS011;46248;58.364;25.582;2023-08-07T16:04:32;2.65;;;0.80;;
59766;SDS011;46248;58.364;25.582;2023-08-07T16:07:54;1.10;;;0.55;;
59766;SDS011;46248;58.364;25.582;2023-08-07T16:11:15;1.65;;;0.70;;
59766;SDS011;46248;58.364;25.582;2023-08-07T16:14:37;4.18;;;0.60;;
59766;SDS011;46248;58.364;25.582;2023-08-07T16:17:58;1.20;;;0.43;;
59766;SDS011;46248;58.364;25.582;2023-08-07T16:21:23;1.33;;;0.40;;
59766;SDS011;46248;58.364;25.582;2023-08-07T16:24:44;0.52;;;0.25;;
59766;SDS011;46248;58.364;25.582;2023-08-07T16:28:07;1.35;;;0.60;;
59766;SDS011;46248;58.364;25.582;2023-08-07T16:31:29;0.73;;;0.43;;
59766;SDS011;46248;58.364;25.582;2023-08-07T16:34:51;2.20;;;0.55;;
59766;SDS011;46248;58.364;25.582;2023-08-07T16:38:14;0.60;;;0.60;;
59766;SDS011;46248;58.364;25.582;2023-08-07T16:41:36;2.90;;;1.40;;
59766;SDS011;46248;58.364;25.582;2023-08-07T16:44:57;2.75;;;1.73;;
59766;SDS011;46248;58.364;25.582;2023-08-07T16:48:19;0.70;;;0.70;;
59766;SDS011;46248;58.364;25.582;2023-08-07T16:51:40;1.35;;;0.70;;
59766;SDS011;46248;58.364;25.582;2023-08-07T16:55:04;2.55;;;0.80;;
59766;SDS011;46248;58.364;25.582;2023-08-07T16:58:26;1.10;;;1.00;;
59766;SDS011;46248;58.364;25.582;2023-08-07T17:01:48;1.80;;;0.50;;
59766;SDS011;46248;58.364;25.582;2023-08-07T17:05:10;1.08;;;0.50;;
59766;SDS011;46248;58.364;25.582;2023-08-07T17:08:31;0.68;;;0.50;;
59766;SDS011;46248;58.364;25.582;2023-08-07T17:11:57;1.85;;;0.50;;
59766;SDS011;46248;58.364;25.582;2023-08-07T17:15:19;3.17;;;1.17;;
59766;SDS011;46248;58.364;25.582;2023-08-07T17:18:41;1.70;;;0.60;;
59766;SDS011;46248;58.364;25.582;2023-08-07T17:22:03;1.67;;;0.80;;
59766;SDS011;46248;58.364;25.582;2023-08-07T17:25:25;1.17;;;0.50;;
59766;SDS011;46248;58.364;25.582;2023-08-07T17:28:48;0.82;;;0.63;;
59766;SDS011;46248;58.364;25.582;2023-08-07T17:32:10;0.70;;;0.70;;
59766;SDS011;46248;58.364;25.582;2023-08-07T17:35:32;1.75;;;0.70;;
59766;SDS011;46248;58.364;25.582;2023-08-07T17:38:55;5.60;;;1.58;;
59766;SDS011;46248;58.364;25.582;2023-08-07T17:42:19;2.45;;;0.90;;
59766;SDS011;46248;58.364;25.582;2023-08-07T17:45:42;3.92;;;1.23;;
59766;SDS011;46248;58.364;25.582;2023-08-07T17:49:04;1.67;;;0.60;;
59766;SDS011;46248;58.364;25.582;2023-08-07T17:52:26;2.30;;;1.08;;
59766;SDS011;46248;58.364;25.582;2023-08-07T17:55:49;1.48;;;0.63;;
59766;SDS011;46248;58.364;25.582;2023-08-07T17:59:11;2.95;;;1.00;;
59766;SDS011;46248;58.364;25.582;2023-08-07T18:02:34;2.45;;;0.93;;
59766;SDS011;46248;58.364;25.582;2023-08-07T18:05:56;0.75;;;0.50;;
59766;SDS011;46248;58.364;25.582;2023-08-07T18:09:18;2.47;;;0.90;;
59766;SDS011;46248;58.364;25.582;2023-08-07T18:12:39;0.68;;;0.55;;
59766;SDS011;46248;58.364;25.582;2023-08-07T18:16:01;2.10;;;0.68;;
59766;SDS011;46248;58.364;25.582;2023-08-07T18:19:25;1.92;;;1.52;;
59766;SDS011;46248;58.364;25.582;2023-08-07T18:22:47;3.63;;;1.25;;
59766;SDS011;46248;58.364;25.582;2023-08-07T18:26:08;3.42;;;0.90;;
59766;SDS011;46248;58.364;25.582;2023-08-07T18:29:30;1.20;;;0.80;;
59766;SDS011;46248;58.364;25.582;2023-08-07T18:32:52;2.33;;;1.00;;
59766;SDS011;46248;58.364;25.582;2023-08-07T18:36:15;1.73;;;1.10;;
59766;SDS011;46248;58.364;25.582;2023-08-07T18:39:37;3.17;;;1.20;;
59766;SDS011;46248;58.364;25.582;2023-08-07T18:42:58;3.00;;;1.35;;
59766;SDS011;46248;58.364;25.582;2023-08-07T18:46:21;2.08;;;0.82;;
59766;SDS011;46248;58.364;25.582;2023-08-07T18:49:43;1.63;;;0.93;;
59766;SDS011;46248;58.364;25.582;2023-08-07T18:53:06;2.95;;;0.85;;
59766;SDS011;46248;58.364;25.582;2023-08-07T18:56:28;1.98;;;0.93;;
59766;SDS011;46248;58.364;25.582;2023-08-07T18:59:49;1.30;;;1.00;;
59766;SDS011;46248;58.364;25.582;2023-08-07T19:03:11;2.25;;;0.75;;
59766;SDS011;46248;58.364;25.582;2023-08-07T19:06:33;2.25;;;1.00;;
59766;SDS011;46248;58.364;25.582;2023-08-07T19:09:56;1.88;;;0.80;;
59766;SDS011;46248;58.364;25.582;2023-08-07T19:13:17;1.40;;;0.90;;
59766;SDS011;46248;58.364;25.582;2023-08-07T19:16:39;1.42;;;1.00;;
59766;SDS011;46248;58.364;25.582;2023-08-07T19:20:06;0.60;;;0.60;;
59766;SDS011;46248;58.364;25.582;2023-08-07T19:23:30;2.92;;;0.90;;
59766;SDS011;46248;58.364;25.582;2023-08-07T19:26:53;4.88;;;1.50;;
59766;SDS011;46248;58.364;25.582;2023-08-07T19:30:16;3.40;;;0.80;;
59766;SDS011;46248;58.364;25.582;2023-08-07T19:33:38;1.00;;;1.00;;
59766;SDS011;46248;58.364;25.582;2023-08-07T19:36:59;2.13;;;1.00;;
59766;SDS011;46248;58.364;25.582;2023-08-07T19:40:21;1.25;;;1.00;;
59766;SDS011;46248;58.364;25.582;2023-08-07T19:43:46;2.63;;;0.93;;
59766;SDS011;46248;58.364;25.582;2023-08-07T19:47:08;3.25;;;1.10;;